TISX/STX METAR and TAF weather

Enter ICAO airport designator
Station Type Date Time Source
TISX METAR 2024/06/14 21:53 UTC NOAA

TISX 142153Z 11007KT 10SM FEW023 30/25 A2992 RMK AO2 SLP131 T03000250


Station Type Date Time Source
TISX Decoded METAR 2024/06/14 21:53 UTC NOAA

Christiansted, Henry E. Rohlsen Airport, Virgin Islands (TISX) 17-42N 064-48W 17M
Jun 14, 2024 - 05:53 PM EDT / 2024.06.14 2153 UTC
Wind: from the ESE (110 degrees) at 8 MPH (7 KT):0
Visibility: 10 mile(s):0
Sky conditions: mostly clear
Temperature: 86.0 F (30.0 C)
Heat index: 96.8 F (36.0 C):1
Dew Point: 77.0 F (25.0 C)
Relative Humidity: 74%
Pressure (altimeter): 29.92 in. Hg (1013 hPa)
ob: TISX 142153Z 11007KT 10SM FEW023 30/25 A2992 RMK AO2 SLP131 T03000250
cycle: 22

Station Type Date Time Source
TISX TAF 2024/06/14 18:24 UTC NOAA